Time;durP1;ratioP1;P1;durP2;ratioP2;P2;SDS_P1;SDS_P2;PMS_P1;PMS_P2;Temp;Humidity;BMP_temperature;BMP_pressure;BME280_temperature;BME280_humidity;BME280_pressure;Samples;Min_cycle;Max_cycle;Signal;HPM_P1;HPM_P2
2023/03/02 00:01:57;;;;;;;89.70;54.53;;;2.60;99.90;;;;;;5106069;28;20056;-72
2023/03/02 00:07:44;;;;;;;92.85;56.45;;;2.50;99.90;;;;;;5097525;28;19918;-72
2023/03/02 00:10:10;;;;;;;104.15;57.88;;;2.50;99.90;;;;;;5103839;28;20412;-72
2023/03/02 00:12:36;;;;;;;97.70;55.83;;;2.40;99.90;;;;;;5106739;28;20427;-72
2023/03/02 00:15:03;;;;;;;93.15;55.83;;;2.40;99.90;;;;;;5107762;28;20511;-72
2023/03/02 00:17:29;;;;;;;90.50;57.10;;;2.40;99.90;;;;;;5105430;28;20075;-72
2023/03/02 00:20:09;;;;;;;92.07;56.53;;;2.40;99.90;;;;;;5106021;28;20075;-72
2023/03/02 00:22:43;;;;;;;100.38;58.60;;;2.40;99.90;;;;;;5106822;28;20385;-72
2023/03/02 00:25:11;;;;;;;99.05;57.90;;;2.30;99.90;;;;;;5105978;28;20043;-73
2023/03/02 00:27:36;;;;;;;90.35;54.15;;;2.20;99.90;;;;;;5100206;28;20043;-73
2023/03/02 00:30:04;;;;;;;95.45;55.58;;;2.20;99.90;;;;;;5106889;28;20052;-74
2023/03/02 00:32:29;;;;;;;109.63;59.80;;;2.20;99.90;;;;;;5106868;28;20078;-73
2023/03/02 00:34:55;;;;;;;91.05;53.42;;;2.20;99.90;;;;;;5106458;28;20136;-73
2023/03/02 00:37:21;;;;;;;95.57;59.08;;;2.20;99.90;;;;;;5107149;28;20512;-73
2023/03/02 00:39:46;;;;;;;103.40;59.58;;;2.20;99.90;;;;;;5088966;28;20437;-72
2023/03/02 00:42:12;;;;;;;92.60;58.53;;;2.20;99.90;;;;;;5106025;28;20051;-72
2023/03/02 00:44:39;;;;;;;109.78;61.58;;;2.20;99.90;;;;;;5105823;28;20157;-73
2023/03/02 00:47:04;;;;;;;106.93;61.70;;;2.20;99.90;;;;;;5102669;28;20048;-73
2023/03/02 00:49:30;;;;;;;103.20;59.60;;;2.20;99.90;;;;;;5105607;28;20507;-73
2023/03/02 00:51:57;;;;;;;109.53;62.95;;;2.20;99.90;;;;;;5105598;28;20044;-73
2023/03/02 00:54:23;;;;;;;108.38;63.08;;;2.20;99.90;;;;;;5106225;28;20048;-73
2023/03/02 00:56:48;;;;;;;109.25;62.40;;;2.20;99.90;;;;;;5106472;28;20054;-73
2023/03/02 00:59:25;;;;;;;101.80;60.10;;;2.20;99.90;;;;;;5088084;28;20048;-73
2023/03/02 01:01:56;;;;;;;115.00;63.45;;;2.10;99.90;;;;;;5109117;28;20195;-72
2023/03/02 01:04:28;;;;;;;105.25;61.65;;;2.10;99.90;;;;;;5116682;28;20078;-72
2023/03/02 01:06:58;;;;;;;104.55;62.03;;;2.10;99.90;;;;;;5121746;27;20047;-72
2023/03/02 01:09:24;;;;;;;113.07;65.57;;;2.10;99.90;;;;;;5119730;27;20400;-72
2023/03/02 01:11:50;;;;;;;104.05;59.60;;;2.00;99.90;;;;;;5123853;27;20046;-72
2023/03/02 01:14:17;;;;;;;114.18;64.80;;;2.10;99.90;;;;;;5146510;27;20050;-72
2023/03/02 01:16:43;;;;;;;119.38;63.13;;;2.00;99.90;;;;;;5122514;27;20058;-72
2023/03/02 01:19:09;;;;;;;96.85;57.83;;;2.00;99.90;;;;;;5125344;27;20459;-72
2023/03/02 01:21:35;;;;;;;107.13;61.45;;;2.00;99.90;;;;;;5119400;27;20048;-72
2023/03/02 01:24:00;;;;;;;110.18;62.35;;;2.00;99.90;;;;;;5113145;27;20058;-72
2023/03/02 01:26:26;;;;;;;105.20;60.38;;;2.00;99.90;;;;;;5117361;27;20047;-73
2023/03/02 01:28:54;;;;;;;95.65;56.42;;;2.00;99.90;;;;;;5123358;27;20054;-73
2023/03/02 01:31:25;;;;;;;83.10;52.43;;;2.00;99.90;;;;;;5115686;27;20051;-73
2023/03/02 01:33:51;;;;;;;90.10;55.05;;;2.00;99.90;;;;;;5117817;27;20050;-72
2023/03/02 01:36:17;;;;;;;92.70;54.13;;;2.00;99.90;;;;;;5129394;27;20405;-72
2023/03/02 01:38:43;;;;;;;77.78;50.17;;;2.00;99.90;;;;;;5095974;28;20052;-72
2023/03/02 01:41:10;;;;;;;90.80;53.22;;;2.00;99.90;;;;;;5112141;27;20125;-72
2023/03/02 01:43:36;;;;;;;87.45;53.38;;;1.90;99.90;;;;;;5129082;27;20055;-72
2023/03/02 01:46:08;;;;;;;110.88;62.22;;;1.90;99.90;;;;;;5127877;27;20061;-72
2023/03/02 01:48:38;;;;;;;99.75;60.25;;;1.90;99.90;;;;;;5115953;27;20828;-72
2023/03/02 01:51:05;;;;;;;102.85;60.00;;;2.00;99.90;;;;;;5118174;27;20101;-72
2023/03/02 01:53:34;;;;;;;108.70;61.35;;;1.90;99.90;;;;;;5124023;27;20079;-72
2023/03/02 01:56:02;;;;;;;105.78;61.25;;;1.90;99.90;;;;;;5115687;27;20553;-72
2023/03/02 01:58:33;;;;;;;100.75;58.50;;;1.90;99.90;;;;;;5109859;27;20039;-72
2023/03/02 02:00:59;;;;;;;96.38;58.67;;;1.90;99.90;;;;;;5119759;27;20062;-72
2023/03/02 02:03:29;;;;;;;90.57;53.15;;;1.90;99.90;;;;;;5110633;27;20051;-73
2023/03/02 02:06:21;;;;;;;93.25;55.63;;;1.90;99.90;;;;;;5115109;27;20056;-72
2023/03/02 02:08:48;;;;;;;89.90;52.35;;;1.80;99.90;;;;;;5125561;27;20050;-72
2023/03/02 02:11:14;;;;;;;88.45;49.70;;;1.80;99.90;;;;;;5125751;27;20169;-72
2023/03/02 02:13:40;;;;;;;88.97;52.97;;;1.70;99.90;;;;;;5128407;27;20114;-72
2023/03/02 02:16:06;;;;;;;87.68;53.22;;;1.70;99.90;;;;;;5128649;27;20059;-72
2023/03/02 02:18:36;;;;;;;88.85;53.20;;;1.70;99.90;;;;;;5128273;27;20047;-72
2023/03/02 02:21:03;;;;;;;89.97;56.30;;;1.70;99.90;;;;;;5127988;27;20055;-72
2023/03/02 02:23:39;;;;;;;86.05;52.70;;;1.60;99.90;;;;;;5121656;27;20085;-73
2023/03/02 02:26:22;;;;;;;83.80;49.90;;;1.70;99.90;;;;;;5119329;27;20050;-73
2023/03/02 02:29:02;;;;;;;94.90;51.80;;;1.60;99.90;;;;;;5116725;27;20051;-73
2023/03/02 02:31:41;;;;;;;91.55;52.83;;;1.60;99.90;;;;;;5117080;27;20683;-73
2023/03/02 02:34:15;;;;;;;81.60;47.13;;;1.60;99.90;;;;;;5115110;27;20065;-73
2023/03/02 02:36:45;;;;;;;81.60;49.08;;;1.60;99.90;;;;;;5133513;27;20048;-73
2023/03/02 02:39:20;;;;;;;124.47;56.15;;;1.60;99.90;;;;;;5116082;27;20407;-73
2023/03/02 02:41:49;;;;;;;92.68;54.75;;;1.60;99.90;;;;;;5122499;27;20087;-73
2023/03/02 02:44:17;;;;;;;111.95;55.88;;;1.60;99.90;;;;;;5123207;27;20444;-72
2023/03/02 02:46:43;;;;;;;102.45;55.53;;;1.60;99.90;;;;;;5122700;27;20043;-73
2023/03/02 02:49:28;;;;;;;95.35;52.15;;;1.50;99.90;;;;;;5113356;27;20051;-72
2023/03/02 02:51:54;;;;;;;105.05;53.03;;;1.50;99.90;;;;;;5125177;27;20074;-73
2023/03/02 02:54:21;;;;;;;94.80;51.22;;;1.50;99.90;;;;;;5121578;27;20139;-73
2023/03/02 02:56:48;;;;;;;104.97;55.85;;;1.40;99.90;;;;;;5119052;27;20043;-73
2023/03/02 02:59:27;;;;;;;103.43;55.28;;;1.40;99.90;;;;;;5123863;27;20069;-73
2023/03/02 03:01:55;;;;;;;132.43;58.53;;;1.40;99.90;;;;;;5127485;27;20539;-73
2023/03/02 03:04:27;;;;;;;135.18;60.50;;;1.40;99.90;;;;;;5127390;27;20574;-73
2023/03/02 03:06:58;;;;;;;161.32;63.80;;;1.40;99.90;;;;;;5120547;27;20050;-73
2023/03/02 03:09:25;;;;;;;137.65;61.40;;;1.30;99.90;;;;;;5125110;27;20070;-73
2023/03/02 03:12:03;;;;;;;118.47;57.47;;;1.30;99.90;;;;;;5124886;27;20043;-73
2023/03/02 03:14:39;;;;;;;141.25;63.55;;;1.20;99.90;;;;;;5123251;27;20035;-73
2023/03/02 03:17:10;;;;;;;145.32;63.05;;;1.20;99.90;;;;;;5115863;27;20500;-73
2023/03/02 03:19:38;;;;;;;170.05;68.38;;;1.20;99.90;;;;;;5125462;27;20086;-73
2023/03/02 03:22:04;;;;;;;174.43;66.82;;;1.20;99.90;;;;;;5127472;27;20706;-73
2023/03/02 03:24:31;;;;;;;152.52;66.95;;;1.20;99.90;;;;;;5126157;27;20043;-73
2023/03/02 03:26:58;;;;;;;168.93;73.45;;;1.10;99.90;;;;;;5107198;28;20374;-73
2023/03/02 03:29:26;;;;;;;211.48;73.30;;;1.10;99.90;;;;;;5120375;27;20034;-73
2023/03/02 03:31:53;;;;;;;279.95;82.28;;;1.10;99.90;;;;;;5119323;27;20047;-73
2023/03/02 03:34:20;;;;;;;223.13;78.00;;;1.20;99.90;;;;;;5119488;27;20047;-73
2023/03/02 03:36:46;;;;;;;210.73;77.97;;;1.20;99.90;;;;;;5124639;27;20039;-73
2023/03/02 03:39:14;;;;;;;276.88;79.30;;;1.10;99.90;;;;;;5120975;27;20055;-73
2023/03/02 03:41:40;;;;;;;236.43;76.55;;;1.10;99.90;;;;;;5118328;27;20884;-73
2023/03/02 03:44:05;;;;;;;270.33;82.25;;;1.00;99.90;;;;;;5118418;27;20389;-73
2023/03/02 03:46:32;;;;;;;239.60;77.25;;;1.00;99.90;;;;;;5119966;27;20042;-73
2023/03/02 03:48:58;;;;;;;255.18;80.30;;;1.00;99.90;;;;;;5119230;27;20039;-73
2023/03/02 03:51:24;;;;;;;221.40;81.05;;;1.00;99.90;;;;;;5106990;28;20112;-73
2023/03/02 03:53:59;;;;;;;319.30;86.85;;;1.00;99.90;;;;;;5119501;27;20724;-73
2023/03/02 03:56:32;;;;;;;216.60;81.18;;;1.10;99.90;;;;;;5127907;27;20038;-73
2023/03/02 03:59:05;;;;;;;290.13;86.57;;;1.10;99.90;;;;;;5123417;27;20035;-73
2023/03/02 04:01:34;;;;;;;285.58;87.03;;;1.10;99.90;;;;;;5116866;27;20058;-73
2023/03/02 04:04:02;;;;;;;274.05;83.20;;;1.10;99.90;;;;;;5125859;28;20043;-73
2023/03/02 04:06:28;;;;;;;264.83;82.93;;;1.10;99.90;;;;;;5122975;28;20128;-74
2023/03/02 04:08:53;;;;;;;317.00;86.15;;;1.10;99.90;;;;;;5113008;28;20130;-73
2023/03/02 04:11:19;;;;;;;302.10;88.38;;;1.00;99.90;;;;;;5121369;28;20123;-73
2023/03/02 04:13:45;;;;;;;293.92;87.30;;;1.00;99.90;;;;;;5127685;28;20489;-73
2023/03/02 04:16:10;;;;;;;312.95;90.53;;;1.00;99.90;;;;;;5113429;28;20050;-73
2023/03/02 04:18:36;;;;;;;296.02;89.28;;;0.90;99.90;;;;;;5112511;28;20909;-73
2023/03/02 04:21:02;;;;;;;428.33;105.45;;;0.90;99.90;;;;;;5125283;28;20053;-73
2023/03/02 04:23:27;;;;;;;392.05;101.22;;;0.90;99.90;;;;;;5127529;28;20500;-73
2023/03/02 04:25:53;;;;;;;425.52;103.90;;;0.90;99.90;;;;;;5110107;28;20044;-73
2023/03/02 04:28:19;;;;;;;405.50;106.18;;;0.90;99.90;;;;;;5125493;28;20593;-73
2023/03/02 04:30:44;;;;;;;363.45;99.30;;;0.90;99.90;;;;;;5105417;28;20395;-73
2023/03/02 04:33:10;;;;;;;447.92;110.45;;;0.90;99.90;;;;;;5125576;28;20051;-73
2023/03/02 04:35:35;;;;;;;537.17;122.50;;;1.00;99.90;;;;;;5119614;28;20035;-73
2023/03/02 04:38:02;;;;;;;474.58;121.72;;;0.90;99.90;;;;;;5111399;28;20052;-73
2023/03/02 04:40:28;;;;;;;384.20;101.20;;;0.90;99.90;;;;;;5127553;28;20507;-71
2023/03/02 04:42:54;;;;;;;456.42;108.82;;;0.90;99.90;;;;;;5114944;27;20464;-72
2023/03/02 04:45:20;;;;;;;420.75;110.10;;;0.90;99.90;;;;;;5124223;27;20154;-72
2023/03/02 04:47:46;;;;;;;484.38;118.18;;;0.90;99.90;;;;;;5112301;27;20043;-72
2023/03/02 04:50:13;;;;;;;484.15;119.93;;;0.80;99.90;;;;;;5122736;27;20044;-72
2023/03/02 04:52:39;;;;;;;470.42;112.53;;;0.80;99.90;;;;;;5113224;27;20047;-72
2023/03/02 04:55:06;;;;;;;474.25;123.55;;;0.80;99.90;;;;;;5114422;27;20090;-72
2023/03/02 04:57:32;;;;;;;380.85;104.60;;;0.80;99.90;;;;;;5115596;27;20051;-72
2023/03/02 04:59:58;;;;;;;504.42;127.45;;;0.80;99.90;;;;;;5116877;27;20063;-72
2023/03/02 05:02:23;;;;;;;526.58;130.45;;;0.90;99.90;;;;;;5119590;27;20050;-72
2023/03/02 05:04:49;;;;;;;493.70;127.97;;;0.80;99.90;;;;;;5128732;27;20086;-72
2023/03/02 05:07:15;;;;;;;506.80;126.45;;;0.80;99.90;;;;;;5129304;27;20071;-72
2023/03/02 05:09:41;;;;;;;485.60;132.73;;;0.80;99.90;;;;;;5111756;27;20578;-72
2023/03/02 05:12:06;;;;;;;527.42;134.05;;;0.80;99.90;;;;;;5129687;27;20419;-71
2023/03/02 05:14:32;;;;;;;421.38;116.60;;;0.80;99.90;;;;;;5122792;27;20099;-72
2023/03/02 05:16:58;;;;;;;496.55;127.95;;;0.90;99.90;;;;;;5113761;27;20043;-72
2023/03/02 05:19:24;;;;;;;483.45;125.50;;;0.80;99.90;;;;;;5114256;27;20043;-71
2023/03/02 05:21:49;;;;;;;517.15;133.98;;;0.80;99.90;;;;;;5110806;27;20051;-72
2023/03/02 05:24:15;;;;;;;511.60;134.57;;;0.80;99.90;;;;;;5119556;27;20535;-72
2023/03/02 05:26:41;;;;;;;606.28;147.90;;;0.80;99.90;;;;;;5095678;28;20055;-71
2023/03/02 05:29:07;;;;;;;505.77;127.18;;;0.80;99.90;;;;;;5117943;27;20515;-72
2023/03/02 05:31:39;;;;;;;424.10;111.70;;;0.80;99.90;;;;;;5112995;27;20039;-72
2023/03/02 05:34:07;;;;;;;463.40;119.70;;;0.70;99.90;;;;;;5125325;27;20051;-72
2023/03/02 05:36:33;;;;;;;513.92;127.20;;;0.70;99.90;;;;;;5130450;27;20067;-72
2023/03/02 05:38:59;;;;;;;528.13;131.85;;;0.70;99.90;;;;;;5127461;27;20051;-72
2023/03/02 05:41:25;;;;;;;556.35;139.25;;;0.70;99.90;;;;;;5125796;27;20046;-72
2023/03/02 05:43:52;;;;;;;484.98;120.78;;;0.70;99.90;;;;;;5128735;27;20571;-72
2023/03/02 05:46:18;;;;;;;547.08;141.18;;;0.70;99.90;;;;;;5121498;27;20035;-72
2023/03/02 05:48:45;;;;;;;497.90;124.07;;;0.70;99.90;;;;;;5128992;27;20400;-73
2023/03/02 05:51:12;;;;;;;512.85;132.02;;;0.70;99.90;;;;;;5128678;27;20088;-72
2023/03/02 05:53:37;;;;;;;530.88;132.93;;;0.70;99.90;;;;;;5102809;28;20051;-72
2023/03/02 05:56:03;;;;;;;407.35;114.63;;;0.70;99.90;;;;;;5117752;27;20053;-73
2023/03/02 05:58:29;;;;;;;333.50;98.65;;;0.70;99.90;;;;;;5107943;28;20096;-72
2023/03/02 06:00:55;;;;;;;328.65;99.90;;;0.70;99.90;;;;;;5116427;27;20531;-72
2023/03/02 06:03:20;;;;;;;392.10;109.25;;;0.70;99.90;;;;;;5126114;27;20039;-72
2023/03/02 06:05:49;;;;;;;337.05;102.57;;;0.70;99.90;;;;;;5128482;27;20047;-72
2023/03/02 06:08:17;;;;;;;336.38;96.97;;;0.70;99.90;;;;;;5128815;27;20051;-72
2023/03/02 06:10:43;;;;;;;444.25;118.53;;;0.70;99.90;;;;;;5128613;27;20066;-73
2023/03/02 06:13:09;;;;;;;446.92;121.13;;;0.70;99.90;;;;;;5126419;27;20052;-73
2023/03/02 06:15:35;;;;;;;435.17;116.13;;;0.70;99.90;;;;;;5124396;27;20051;-72
2023/03/02 06:18:02;;;;;;;412.02;109.95;;;0.70;99.90;;;;;;5129179;27;20043;-73
2023/03/02 06:20:27;;;;;;;354.83;101.93;;;0.70;99.90;;;;;;5119485;27;20120;-73
2023/03/02 06:22:54;;;;;;;394.95;108.50;;;0.70;99.90;;;;;;5119292;27;20047;-73
2023/03/02 06:25:21;;;;;;;427.13;111.65;;;0.70;99.90;;;;;;5106948;28;20039;-73
2023/03/02 06:27:52;;;;;;;365.92;108.15;;;0.70;99.90;;;;;;5123725;27;20074;-73
2023/03/02 06:30:23;;;;;;;391.98;108.50;;;0.70;99.90;;;;;;5127367;27;20058;-73
2023/03/02 06:32:49;;;;;;;379.95;107.70;;;0.60;99.90;;;;;;5127944;27;20371;-72
2023/03/02 06:35:15;;;;;;;432.10;119.80;;;0.70;99.90;;;;;;5113604;27;20395;-72
2023/03/02 06:37:42;;;;;;;321.02;102.97;;;0.70;99.90;;;;;;5122332;27;20043;-73
2023/03/02 06:40:10;;;;;;;303.70;100.65;;;0.70;99.90;;;;;;5127348;27;20496;-72
2023/03/02 06:42:37;;;;;;;398.25;112.53;;;0.70;99.90;;;;;;5116596;27;20060;-72
2023/03/02 06:45:04;;;;;;;345.80;109.13;;;0.80;99.90;;;;;;5123578;27;20503;-73
2023/03/02 06:47:30;;;;;;;347.92;108.93;;;0.80;99.90;;;;;;5118877;27;20039;-73
2023/03/02 06:49:55;;;;;;;336.00;104.57;;;0.80;99.90;;;;;;5114978;27;20752;-73
2023/03/02 06:52:21;;;;;;;395.42;120.82;;;0.80;99.90;;;;;;5112871;27;20054;-73
2023/03/02 06:54:47;;;;;;;408.45;117.15;;;0.80;99.90;;;;;;5113074;27;20047;-72
2023/03/02 06:57:12;;;;;;;382.25;115.40;;;0.90;99.90;;;;;;5123337;27;20051;-73
2023/03/02 06:59:38;;;;;;;397.45;115.30;;;0.90;99.90;;;;;;5127915;27;20092;-72
2023/03/02 07:02:05;;;;;;;384.52;114.82;;;0.90;99.90;;;;;;5113824;27;20150;-73
2023/03/02 07:04:31;;;;;;;469.98;126.63;;;0.80;99.90;;;;;;5118528;27;20054;-72
2023/03/02 07:06:57;;;;;;;438.48;117.90;;;0.80;99.90;;;;;;5146777;27;20107;-72
2023/03/02 07:09:23;;;;;;;358.80;103.15;;;0.80;99.90;;;;;;5115507;27;20509;-72
2023/03/02 07:11:48;;;;;;;294.98;91.85;;;0.80;99.90;;;;;;5129936;27;20070;-72
2023/03/02 07:14:14;;;;;;;364.08;102.65;;;0.80;99.90;;;;;;5125893;27;20058;-72
2023/03/02 07:16:40;;;;;;;398.95;109.60;;;0.80;99.90;;;;;;5128130;27;20085;-73
2023/03/02 07:19:09;;;;;;;340.95;97.30;;;0.80;99.90;;;;;;5142178;27;20035;-73
2023/03/02 07:21:35;;;;;;;270.58;93.18;;;0.80;99.90;;;;;;5122450;27;20049;-73
2023/03/02 07:24:00;;;;;;;286.63;92.35;;;0.80;99.90;;;;;;5117839;27;20035;-72
2023/03/02 07:26:26;;;;;;;357.60;104.95;;;0.80;99.90;;;;;;5130137;27;20046;-73
2023/03/02 07:28:52;;;;;;;376.73;108.75;;;0.80;99.90;;;;;;5134139;27;20053;-73
2023/03/02 07:31:17;;;;;;;325.27;100.28;;;0.80;99.90;;;;;;5131875;27;20057;-73
2023/03/02 07:33:43;;;;;;;326.90;99.38;;;0.90;99.90;;;;;;5139704;27;20475;-73
2023/03/02 07:36:09;;;;;;;415.67;112.03;;;0.80;99.90;;;;;;5119331;27;20388;-73
2023/03/02 07:38:36;;;;;;;370.75;104.65;;;0.80;99.90;;;;;;5121202;27;20043;-73
2023/03/02 07:41:07;;;;;;;349.45;105.18;;;0.90;99.90;;;;;;5124857;27;20622;-73
2023/03/02 07:43:34;;;;;;;403.98;110.90;;;0.90;99.90;;;;;;5111258;27;20047;-74
2023/03/02 07:46:00;;;;;;;354.58;103.03;;;0.90;99.90;;;;;;5116861;27;20054;-73
2023/03/02 07:48:25;;;;;;;305.33;94.88;;;0.90;99.90;;;;;;5117923;27;20043;-73
2023/03/02 07:50:57;;;;;;;407.98;108.22;;;0.90;99.90;;;;;;5098877;27;20031;-73
2023/03/02 07:53:22;;;;;;;396.88;107.57;;;0.90;99.90;;;;;;5127203;27;20479;-72
2023/03/02 07:55:48;;;;;;;395.55;108.68;;;0.90;99.90;;;;;;5126705;27;20046;-72
2023/03/02 07:58:14;;;;;;;293.60;91.43;;;0.90;99.90;;;;;;5123859;27;20106;-72
2023/03/02 08:00:39;;;;;;;375.77;101.35;;;0.90;99.90;;;;;;5111840;28;20475;-73
2023/03/02 08:03:05;;;;;;;306.48;94.53;;;0.90;99.90;;;;;;5111730;27;20047;-72
2023/03/02 08:05:31;;;;;;;247.93;83.22;;;0.90;99.90;;;;;;5121136;27;20053;-73
2023/03/02 08:07:58;;;;;;;275.92;94.00;;;0.90;99.90;;;;;;5118768;28;20066;-73
2023/03/02 08:10:24;;;;;;;268.83;88.45;;;0.90;99.90;;;;;;5123469;27;20066;-73
2023/03/02 08:12:50;;;;;;;227.60;87.03;;;0.90;99.90;;;;;;5120691;27;20497;-73
2023/03/02 08:15:15;;;;;;;254.55;82.25;;;0.90;99.90;;;;;;5112378;28;20694;-73
2023/03/02 08:17:41;;;;;;;313.15;97.95;;;1.00;99.90;;;;;;5116700;27;20388;-73
2023/03/02 08:20:07;;;;;;;330.17;102.82;;;1.00;99.90;;;;;;5132272;27;20047;-73
2023/03/02 08:22:33;;;;;;;387.65;112.88;;;1.00;99.90;;;;;;5106844;27;20526;-71
2023/03/02 08:24:59;;;;;;;287.95;91.40;;;1.00;99.90;;;;;;5125848;27;20051;-73
2023/03/02 08:27:25;;;;;;;421.42;111.03;;;1.00;99.90;;;;;;5127232;27;20055;-73
2023/03/02 08:29:51;;;;;;;319.80;101.10;;;1.00;99.90;;;;;;5125244;27;20488;-73
2023/03/02 08:32:16;;;;;;;277.27;93.57;;;1.00;99.90;;;;;;5116154;27;20090;-73
2023/03/02 08:34:42;;;;;;;316.13;93.38;;;1.10;99.90;;;;;;5130550;27;20043;-73
2023/03/02 08:37:12;;;;;;;348.20;99.57;;;1.00;99.90;;;;;;5130886;27;20506;-73
2023/03/02 08:39:37;;;;;;;351.42;99.28;;;0.90;99.90;;;;;;5148601;27;20134;-73
2023/03/02 08:42:08;;;;;;;183.68;72.63;;;0.90;99.90;;;;;;5132878;27;20792;-74
2023/03/02 08:44:36;;;;;;;248.43;82.97;;;0.90;99.90;;;;;;5123176;27;20089;-74
2023/03/02 08:47:02;;;;;;;347.02;95.50;;;0.90;99.90;;;;;;5129857;27;20072;-74
2023/03/02 08:49:28;;;;;;;298.60;84.53;;;0.90;99.90;;;;;;5102882;27;20499;-73
2023/03/02 08:51:55;;;;;;;276.77;82.68;;;0.90;99.90;;;;;;5121411;27;20054;-73
2023/03/02 08:54:22;;;;;;;288.88;86.43;;;0.90;99.90;;;;;;5121673;27;20496;-74
2023/03/02 08:56:47;;;;;;;379.25;103.10;;;0.90;99.90;;;;;;5126859;27;20491;-74
2023/03/02 08:59:13;;;;;;;314.73;92.50;;;0.90;99.90;;;;;;5123628;27;20065;-74
2023/03/02 09:01:39;;;;;;;348.90;93.63;;;0.90;99.90;;;;;;5130586;27;20043;-74
2023/03/02 09:04:08;;;;;;;263.67;82.38;;;0.90;99.90;;;;;;5124807;27;20063;-74
2023/03/02 09:06:37;;;;;;;269.73;82.38;;;1.00;99.90;;;;;;5120457;27;20462;-73
2023/03/02 09:09:03;;;;;;;305.35;92.32;;;1.00;99.90;;;;;;5119914;27;20100;-74
2023/03/02 09:11:29;;;;;;;296.98;88.80;;;1.10;99.90;;;;;;5118304;27;20388;-73
2023/03/02 09:13:55;;;;;;;312.70;91.85;;;1.10;99.90;;;;;;5124048;27;20095;-73
2023/03/02 09:16:22;;;;;;;242.68;83.10;;;1.20;99.90;;;;;;5116379;27;20043;-73
2023/03/02 09:18:48;;;;;;;252.80;83.82;;;1.20;99.90;;;;;;5122316;27;20516;-74
2023/03/02 09:21:16;;;;;;;248.93;83.70;;;1.30;99.90;;;;;;5124351;27;20671;-73
2023/03/02 09:23:42;;;;;;;230.77;81.30;;;1.30;99.90;;;;;;5111744;27;20039;-71
2023/03/02 09:26:09;;;;;;;167.95;72.65;;;1.30;99.90;;;;;;5146515;27;20054;-71
2023/03/02 09:28:36;;;;;;;238.45;84.20;;;1.30;99.90;;;;;;5113863;27;20092;-72
2023/03/02 09:31:04;;;;;;;198.18;77.00;;;1.40;99.90;;;;;;5119362;27;20396;-72
2023/03/02 09:33:30;;;;;;;246.73;84.63;;;1.40;99.90;;;;;;5113493;27;20035;-73
2023/03/02 09:35:56;;;;;;;231.43;83.82;;;1.40;99.90;;;;;;5129006;27;20053;-72
2023/03/02 09:38:22;;;;;;;178.82;72.00;;;1.40;99.90;;;;;;5126356;27;20047;-72
2023/03/02 09:41:04;;;;;;;171.35;71.90;;;1.50;99.90;;;;;;5119092;27;21059;-73
2023/03/02 09:43:42;;;;;;;156.38;72.18;;;1.50;99.90;;;;;;5112852;27;20445;-72
2023/03/02 09:46:26;;;;;;;199.60;75.85;;;1.60;99.90;;;;;;5144141;27;20137;-72
2023/03/02 09:49:17;;;;;;;262.13;87.13;;;1.60;99.90;;;;;;5114985;27;20035;-73
2023/03/02 09:52:07;;;;;;;141.43;64.60;;;1.60;99.90;;;;;;5128883;27;20137;-72
2023/03/02 09:54:36;;;;;;;131.02;60.38;;;1.60;99.90;;;;;;5129033;27;20134;-73
2023/03/02 09:57:22;;;;;;;163.48;70.43;;;1.60;99.90;;;;;;5128098;27;20047;-73
2023/03/02 10:00:05;;;;;;;173.82;72.22;;;1.70;99.90;;;;;;5127528;27;20092;-72
2023/03/02 10:02:41;;;;;;;155.60;66.50;;;1.70;99.90;;;;;;5122673;27;20047;-73
2023/03/02 10:05:33;;;;;;;184.00;70.75;;;1.70;99.90;;;;;;5132891;27;20046;-73
2023/03/02 10:07:59;;;;;;;164.88;67.68;;;1.80;99.90;;;;;;5132298;27;20141;-72
2023/03/02 10:10:41;;;;;;;158.52;69.35;;;1.70;99.90;;;;;;5131356;27;20566;-73
2023/03/02 10:13:18;;;;;;;205.05;76.00;;;1.80;99.90;;;;;;5132080;27;20415;-73
2023/03/02 10:15:57;;;;;;;175.00;71.13;;;1.80;99.90;;;;;;5132258;27;20046;-72
2023/03/02 10:18:22;;;;;;;137.18;62.67;;;1.90;99.90;;;;;;5110921;27;20062;-72
2023/03/02 10:20:54;;;;;;;140.70;64.25;;;1.90;99.90;;;;;;5111001;27;20047;-73
2023/03/02 10:23:41;;;;;;;146.45;65.20;;;2.00;99.90;;;;;;5111348;27;20054;-72
2023/03/02 10:26:12;;;;;;;168.50;69.70;;;2.00;99.90;;;;;;5121381;27;20083;-72
2023/03/02 10:28:43;;;;;;;152.98;69.40;;;2.10;99.90;;;;;;5120229;27;20130;-72
2023/03/02 10:31:13;;;;;;;123.30;62.45;;;2.20;99.90;;;;;;5128141;27;20046;-72
2023/03/02 10:33:40;;;;;;;133.80;63.90;;;2.20;99.90;;;;;;5132076;27;20034;-72
2023/03/02 10:36:21;;;;;;;128.43;62.88;;;2.20;99.90;;;;;;5097052;27;20058;-76
2023/03/02 10:38:47;;;;;;;117.88;61.25;;;2.20;99.90;;;;;;5122745;27;20043;-76
2023/03/02 10:41:27;;;;;;;126.05;62.10;;;2.20;99.90;;;;;;5116252;27;20128;-76
2023/03/02 10:44:02;;;;;;;112.93;57.95;;;2.30;99.90;;;;;;5119922;27;20118;-76
2023/03/02 10:46:41;;;;;;;107.82;58.67;;;2.30;99.90;;;;;;5101042;27;20050;-76
2023/03/02 10:49:28;;;;;;;124.88;59.53;;;2.30;99.90;;;;;;5115624;27;20047;-76
2023/03/02 10:52:23;;;;;;;113.93;61.08;;;2.40;99.90;;;;;;5127583;27;20057;-76
2023/03/02 10:55:05;;;;;;;88.97;52.08;;;2.50;99.90;;;;;;5117626;27;20047;-76
2023/03/02 10:57:39;;;;;;;88.45;49.53;;;2.60;99.90;;;;;;5128258;27;20039;-76
2023/03/02 11:00:22;;;;;;;82.47;47.20;;;2.60;99.90;;;;;;5120688;27;20059;-76
2023/03/02 11:02:50;;;;;;;78.38;47.40;;;2.60;99.90;;;;;;5124332;27;20054;-76
2023/03/02 11:05:21;;;;;;;80.47;46.72;;;2.60;99.90;;;;;;5120333;27;20708;-76
2023/03/02 11:07:56;;;;;;;83.63;45.28;;;2.60;99.90;;;;;;5128695;27;20068;-76
2023/03/02 11:10:27;;;;;;;88.82;51.35;;;2.70;99.90;;;;;;5128806;27;20137;-76
2023/03/02 11:12:53;;;;;;;90.30;50.53;;;2.70;99.90;;;;;;5129083;27;20091;-76
2023/03/02 11:15:47;;;;;;;97.40;51.17;;;2.70;99.90;;;;;;5124124;27;20039;-76
2023/03/02 11:18:27;;;;;;;96.22;51.05;;;2.80;99.90;;;;;;5123650;27;20065;-76
2023/03/02 11:21:17;;;;;;;92.88;50.90;;;2.90;99.90;;;;;;5102211;27;20043;-76
2023/03/02 11:24:00;;;;;;;99.57;52.83;;;2.90;99.90;;;;;;5121215;27;20479;-76
2023/03/02 11:26:36;;;;;;;92.43;51.28;;;2.90;99.90;;;;;;5136361;27;20043;-76
2023/03/02 11:29:29;;;;;;;79.90;47.65;;;2.90;99.90;;;;;;5124038;27;20094;-76
2023/03/02 11:32:03;;;;;;;77.00;44.65;;;3.00;99.90;;;;;;5114985;27;20100;-76
2023/03/02 11:35:01;;;;;;;74.57;45.88;;;3.00;99.90;;;;;;5123697;27;20042;-76
2023/03/02 11:37:38;;;;;;;87.53;48.17;;;3.00;99.90;;;;;;5079051;27;20411;-76
2023/03/02 11:40:19;;;;;;;83.33;46.93;;;3.10;99.90;;;;;;5116868;27;20039;-76
2023/03/02 11:42:47;;;;;;;67.15;41.80;;;3.00;99.90;;;;;;5104816;27;20160;-77
2023/03/02 11:45:12;;;;;;;69.93;39.90;;;3.10;99.90;;;;;;5114821;27;20093;-76
2023/03/02 11:47:41;;;;;;;71.53;43.13;;;3.10;99.90;;;;;;5121923;27;20043;-76
2023/03/02 11:50:13;;;;;;;67.55;40.03;;;3.10;99.90;;;;;;5094863;27;20050;-76
2023/03/02 11:52:42;;;;;;;67.88;41.17;;;3.10;99.90;;;;;;5120498;27;20038;-76
2023/03/02 11:55:11;;;;;;;83.00;45.92;;;3.10;99.90;;;;;;5114029;27;20050;-77
2023/03/02 11:57:39;;;;;;;;;;;3.20;99.90;;;;;;5113467;27;20086;-76
2023/03/02 12:00:15;;;;;;;68.38;41.85;;;3.20;99.90;;;;;;5127813;27;20868;-76
2023/03/02 12:02:42;;;;;;;72.13;42.47;;;3.20;99.90;;;;;;5108546;27;20071;-76
2023/03/02 12:05:25;;;;;;;67.07;41.95;;;3.20;99.90;;;;;;5115240;27;20122;-77
2023/03/02 12:08:05;;;;;;;61.08;40.50;;;3.30;99.90;;;;;;5118070;28;20055;-77
2023/03/02 12:10:42;;;;;;;61.80;38.67;;;3.30;99.90;;;;;;5120791;27;20051;-77
2023/03/02 12:13:22;;;;;;;61.03;37.40;;;3.30;99.90;;;;;;5127105;27;20039;-76
2023/03/02 12:15:49;;;;;;;61.97;38.92;;;3.40;99.90;;;;;;5097667;27;20146;-76
2023/03/02 12:18:27;;;;;;;61.90;39.17;;;3.40;99.90;;;;;;5128566;27;20049;-77
2023/03/02 12:21:18;;;;;;;65.70;39.60;;;3.50;99.90;;;;;;5121565;27;20043;-76
2023/03/02 12:23:49;;;;;;;68.68;40.47;;;3.60;99.90;;;;;;5100373;28;20062;-76
2023/03/02 12:26:18;;;;;;;65.13;39.10;;;3.60;99.90;;;;;;5142582;27;20057;-78
2023/03/02 12:28:55;;;;;;;;;;;3.70;99.90;;;;;;5140333;27;20055;-77
2023/03/02 12:31:21;;;;;;;59.88;36.00;;;3.70;99.90;;;;;;5113936;27;20006;-73
2023/03/02 12:33:49;;;;;;;54.45;33.03;;;3.70;99.90;;;;;;5128054;27;20126;-73
2023/03/02 12:36:25;;;;;;;58.47;34.45;;;3.70;99.90;;;;;;5129230;27;20058;-73
2023/03/02 12:39:25;;;;;;;63.75;36.50;;;3.80;99.90;;;;;;5129726;27;20047;-73
2023/03/02 12:42:25;;;;;;;63.55;36.15;;;3.80;99.90;;;;;;5034250;28;20048;-73
2023/03/02 12:45:18;;;;;;;60.63;37.42;;;3.90;99.90;;;;;;5122406;27;20042;-73